sensor_id;sensor_type;location;lat;lon;timestamp;P1;durP1;ratioP1;P2;durP2;ratioP2
33184;SDS011;19550;42.872;25.494;2023-04-01T00:01:09;16.95;;;11.25;;
33184;SDS011;19550;42.872;25.494;2023-04-01T00:03:38;16.60;;;10.70;;
33184;SDS011;19550;42.872;25.494;2023-04-01T00:06:06;21.33;;;11.68;;
33184;SDS011;19550;42.872;25.494;2023-04-01T00:08:32;16.80;;;9.80;;
33184;SDS011;19550;42.872;25.494;2023-04-01T00:10:59;19.88;;;12.95;;
33184;SDS011;19550;42.872;25.494;2023-04-01T00:13:26;21.42;;;12.65;;
33184;SDS011;19550;42.872;25.494;2023-04-01T00:15:55;20.05;;;10.77;;
33184;SDS011;19550;42.872;25.494;2023-04-01T00:18:22;15.40;;;9.65;;
33184;SDS011;19550;42.872;25.494;2023-04-01T00:20:49;17.38;;;10.35;;
33184;SDS011;19550;42.872;25.494;2023-04-01T00:23:17;15.63;;;10.10;;
33184;SDS011;19550;42.872;25.494;2023-04-01T00:25:45;20.98;;;10.95;;
33184;SDS011;19550;42.872;25.494;2023-04-01T00:28:13;14.10;;;9.40;;
33184;SDS011;19550;42.872;25.494;2023-04-01T00:30:40;19.70;;;12.95;;
33184;SDS011;19550;42.872;25.494;2023-04-01T00:33:08;14.57;;;8.77;;
33184;SDS011;19550;42.872;25.494;2023-04-01T00:35:35;15.43;;;9.77;;
33184;SDS011;19550;42.872;25.494;2023-04-01T00:38:02;15.05;;;9.07;;
33184;SDS011;19550;42.872;25.494;2023-04-01T00:40:30;20.60;;;10.63;;
33184;SDS011;19550;42.872;25.494;2023-04-01T00:42:59;19.40;;;11.27;;
33184;SDS011;19550;42.872;25.494;2023-04-01T00:45:28;14.68;;;9.43;;
33184;SDS011;19550;42.872;25.494;2023-04-01T00:47:58;17.40;;;10.27;;
33184;SDS011;19550;42.872;25.494;2023-04-01T00:50:29;17.70;;;10.20;;
33184;SDS011;19550;42.872;25.494;2023-04-01T00:52:58;18.73;;;9.40;;
33184;SDS011;19550;42.872;25.494;2023-04-01T00:55:27;17.77;;;10.32;;
33184;SDS011;19550;42.872;25.494;2023-04-01T00:57:56;25.27;;;12.77;;
33184;SDS011;19550;42.872;25.494;2023-04-01T01:00:25;18.10;;;11.40;;
33184;SDS011;19550;42.872;25.494;2023-04-01T01:02:52;12.90;;;8.15;;
33184;SDS011;19550;42.872;25.494;2023-04-01T01:05:20;28.50;;;12.90;;
33184;SDS011;19550;42.872;25.494;2023-04-01T01:07:59;16.98;;;8.30;;
33184;SDS011;19550;42.872;25.494;2023-04-01T01:10:33;42.03;;;19.45;;
33184;SDS011;19550;42.872;25.494;2023-04-01T01:13:03;32.63;;;15.93;;
33184;SDS011;19550;42.872;25.494;2023-04-01T01:15:37;19.85;;;9.10;;
33184;SDS011;19550;42.872;25.494;2023-04-01T01:18:14;23.65;;;10.00;;
33184;SDS011;19550;42.872;25.494;2023-04-01T01:20:50;20.58;;;9.05;;
33184;SDS011;19550;42.872;25.494;2023-04-01T01:23:48;16.38;;;9.73;;
33184;SDS011;19550;42.872;25.494;2023-04-01T01:29:35;13.68;;;8.05;;
33184;SDS011;19550;42.872;25.494;2023-04-01T01:32:18;10.30;;;6.35;;
33184;SDS011;19550;42.872;25.494;2023-04-01T01:35:05;13.82;;;8.57;;
33184;SDS011;19550;42.872;25.494;2023-04-01T01:37:45;14.90;;;6.90;;
33184;SDS011;19550;42.872;25.494;2023-04-01T01:40:15;13.85;;;7.40;;
33184;SDS011;19550;42.872;25.494;2023-04-01T01:42:44;15.07;;;7.13;;
33184;SDS011;19550;42.872;25.494;2023-04-01T01:45:14;13.23;;;7.60;;
33184;SDS011;19550;42.872;25.494;2023-04-01T01:47:45;11.13;;;6.28;;
33184;SDS011;19550;42.872;25.494;2023-04-01T01:50:15;11.05;;;6.97;;
33184;SDS011;19550;42.872;25.494;2023-04-01T01:52:43;13.13;;;6.78;;
33184;SDS011;19550;42.872;25.494;2023-04-01T01:55:23;9.60;;;6.88;;
33184;SDS011;19550;42.872;25.494;2023-04-01T01:57:53;16.05;;;6.70;;
33184;SDS011;19550;42.872;25.494;2023-04-01T02:00:22;15.57;;;7.78;;
33184;SDS011;19550;42.872;25.494;2023-04-01T02:02:49;15.38;;;7.40;;
33184;SDS011;19550;42.872;25.494;2023-04-01T02:05:18;20.60;;;10.98;;
33184;SDS011;19550;42.872;25.494;2023-04-01T02:07:48;13.85;;;9.02;;
33184;SDS011;19550;42.872;25.494;2023-04-01T02:10:20;15.80;;;9.80;;
33184;SDS011;19550;42.872;25.494;2023-04-01T02:12:51;24.52;;;16.45;;
33184;SDS011;19550;42.872;25.494;2023-04-01T02:15:19;23.38;;;14.38;;
33184;SDS011;19550;42.872;25.494;2023-04-01T02:17:47;18.48;;;11.48;;
33184;SDS011;19550;42.872;25.494;2023-04-01T02:20:18;21.55;;;13.00;;
33184;SDS011;19550;42.872;25.494;2023-04-01T02:22:48;19.65;;;10.55;;
33184;SDS011;19550;42.872;25.494;2023-04-01T02:25:18;20.17;;;11.32;;
33184;SDS011;19550;42.872;25.494;2023-04-01T02:30:14;13.15;;;9.43;;
33184;SDS011;19550;42.872;25.494;2023-04-01T02:32:43;20.35;;;11.13;;
33184;SDS011;19550;42.872;25.494;2023-04-01T02:35:13;17.00;;;10.38;;
33184;SDS011;19550;42.872;25.494;2023-04-01T02:37:43;17.40;;;10.00;;
33184;SDS011;19550;42.872;25.494;2023-04-01T02:40:14;19.75;;;11.40;;
33184;SDS011;19550;42.872;25.494;2023-04-01T02:42:41;16.48;;;10.40;;
33184;SDS011;19550;42.872;25.494;2023-04-01T02:45:09;14.43;;;9.02;;
33184;SDS011;19550;42.872;25.494;2023-04-01T02:47:37;14.90;;;10.35;;
33184;SDS011;19550;42.872;25.494;2023-04-01T02:50:04;15.27;;;7.43;;
33184;SDS011;19550;42.872;25.494;2023-04-01T02:52:32;18.27;;;8.85;;
33184;SDS011;19550;42.872;25.494;2023-04-01T02:55:00;19.08;;;10.05;;
33184;SDS011;19550;42.872;25.494;2023-04-01T02:57:27;15.35;;;7.75;;
33184;SDS011;19550;42.872;25.494;2023-04-01T02:59:54;22.33;;;8.73;;
33184;SDS011;19550;42.872;25.494;2023-04-01T03:02:20;13.05;;;8.18;;
33184;SDS011;19550;42.872;25.494;2023-04-01T03:04:47;17.92;;;7.72;;
33184;SDS011;19550;42.872;25.494;2023-04-01T03:07:14;14.20;;;8.68;;
33184;SDS011;19550;42.872;25.494;2023-04-01T03:09:41;13.23;;;7.50;;
33184;SDS011;19550;42.872;25.494;2023-04-01T03:12:09;15.95;;;7.85;;
33184;SDS011;19550;42.872;25.494;2023-04-01T03:14:36;17.42;;;9.43;;
33184;SDS011;19550;42.872;25.494;2023-04-01T03:17:03;14.65;;;7.78;;
33184;SDS011;19550;42.872;25.494;2023-04-01T03:19:30;32.88;;;17.17;;
33184;SDS011;19550;42.872;25.494;2023-04-01T03:21:57;28.00;;;11.68;;
33184;SDS011;19550;42.872;25.494;2023-04-01T03:24:24;29.17;;;14.77;;
33184;SDS011;19550;42.872;25.494;2023-04-01T03:26:51;19.48;;;10.13;;
33184;SDS011;19550;42.872;25.494;2023-04-01T03:29:19;31.55;;;16.58;;
33184;SDS011;19550;42.872;25.494;2023-04-01T03:31:46;35.33;;;16.90;;
33184;SDS011;19550;42.872;25.494;2023-04-01T03:34:12;18.00;;;9.27;;
33184;SDS011;19550;42.872;25.494;2023-04-01T03:36:39;19.00;;;10.73;;
33184;SDS011;19550;42.872;25.494;2023-04-01T03:39:06;18.60;;;10.13;;
33184;SDS011;19550;42.872;25.494;2023-04-01T03:41:35;24.67;;;11.48;;
33184;SDS011;19550;42.872;25.494;2023-04-01T03:44:02;18.02;;;9.07;;
33184;SDS011;19550;42.872;25.494;2023-04-01T03:46:30;16.88;;;9.20;;
33184;SDS011;19550;42.872;25.494;2023-04-01T03:48:57;16.33;;;9.18;;
33184;SDS011;19550;42.872;25.494;2023-04-01T03:51:24;15.82;;;8.45;;
33184;SDS011;19550;42.872;25.494;2023-04-01T03:53:51;19.77;;;7.80;;
33184;SDS011;19550;42.872;25.494;2023-04-01T03:56:17;17.73;;;9.38;;
33184;SDS011;19550;42.872;25.494;2023-04-01T03:58:44;13.68;;;8.50;;
33184;SDS011;19550;42.872;25.494;2023-04-01T04:01:15;11.40;;;7.72;;
33184;SDS011;19550;42.872;25.494;2023-04-01T04:03:45;16.73;;;8.85;;
33184;SDS011;19550;42.872;25.494;2023-04-01T04:06:12;13.70;;;8.57;;
33184;SDS011;19550;42.872;25.494;2023-04-01T04:08:40;13.30;;;7.10;;
33184;SDS011;19550;42.872;25.494;2023-04-01T04:11:07;13.35;;;7.95;;
33184;SDS011;19550;42.872;25.494;2023-04-01T04:13:34;11.38;;;7.50;;
33184;SDS011;19550;42.872;25.494;2023-04-01T04:16:02;16.83;;;9.10;;
33184;SDS011;19550;42.872;25.494;2023-04-01T04:18:29;20.40;;;11.43;;
33184;SDS011;19550;42.872;25.494;2023-04-01T04:20:57;16.48;;;9.60;;
33184;SDS011;19550;42.872;25.494;2023-04-01T04:23:24;18.17;;;10.35;;
33184;SDS011;19550;42.872;25.494;2023-04-01T04:25:54;15.95;;;10.32;;
33184;SDS011;19550;42.872;25.494;2023-04-01T04:28:22;19.45;;;10.80;;
33184;SDS011;19550;42.872;25.494;2023-04-01T04:30:50;24.33;;;13.05;;
33184;SDS011;19550;42.872;25.494;2023-04-01T04:33:16;16.48;;;9.98;;
33184;SDS011;19550;42.872;25.494;2023-04-01T04:35:43;15.38;;;10.50;;
33184;SDS011;19550;42.872;25.494;2023-04-01T04:38:11;18.67;;;11.13;;
33184;SDS011;19550;42.872;25.494;2023-04-01T04:40:38;20.58;;;12.63;;
33184;SDS011;19550;42.872;25.494;2023-04-01T04:43:06;20.23;;;11.73;;
33184;SDS011;19550;42.872;25.494;2023-04-01T04:45:33;23.27;;;14.50;;
33184;SDS011;19550;42.872;25.494;2023-04-01T04:48:00;26.33;;;13.13;;
33184;SDS011;19550;42.872;25.494;2023-04-01T04:50:26;24.55;;;14.07;;
33184;SDS011;19550;42.872;25.494;2023-04-01T04:52:53;40.40;;;20.27;;
33184;SDS011;19550;42.872;25.494;2023-04-01T04:55:22;35.03;;;20.25;;
33184;SDS011;19550;42.872;25.494;2023-04-01T04:57:48;30.08;;;18.25;;
33184;SDS011;19550;42.872;25.494;2023-04-01T05:00:15;29.83;;;17.70;;
33184;SDS011;19550;42.872;25.494;2023-04-01T05:02:42;30.80;;;18.83;;
33184;SDS011;19550;42.872;25.494;2023-04-01T05:05:09;34.67;;;19.48;;
33184;SDS011;19550;42.872;25.494;2023-04-01T05:07:36;36.35;;;21.77;;
33184;SDS011;19550;42.872;25.494;2023-04-01T05:10:03;41.03;;;22.08;;
33184;SDS011;19550;42.872;25.494;2023-04-01T05:12:33;37.50;;;22.58;;
33184;SDS011;19550;42.872;25.494;2023-04-01T05:15:02;40.28;;;22.75;;
33184;SDS011;19550;42.872;25.494;2023-04-01T05:17:30;40.25;;;22.48;;
33184;SDS011;19550;42.872;25.494;2023-04-01T05:19:57;39.13;;;21.30;;
33184;SDS011;19550;42.872;25.494;2023-04-01T05:22:24;33.25;;;20.58;;
33184;SDS011;19550;42.872;25.494;2023-04-01T05:24:51;27.65;;;18.30;;
33184;SDS011;19550;42.872;25.494;2023-04-01T05:27:18;30.80;;;19.52;;
33184;SDS011;19550;42.872;25.494;2023-04-01T05:29:46;41.30;;;20.88;;
33184;SDS011;19550;42.872;25.494;2023-04-01T05:32:13;40.67;;;22.98;;
33184;SDS011;19550;42.872;25.494;2023-04-01T05:34:40;53.47;;;27.45;;
33184;SDS011;19550;42.872;25.494;2023-04-01T05:37:06;49.72;;;28.48;;
33184;SDS011;19550;42.872;25.494;2023-04-01T05:39:35;53.33;;;25.73;;
33184;SDS011;19550;42.872;25.494;2023-04-01T05:42:03;40.15;;;22.70;;
33184;SDS011;19550;42.872;25.494;2023-04-01T05:44:31;40.58;;;21.58;;
33184;SDS011;19550;42.872;25.494;2023-04-01T05:46:59;42.67;;;21.60;;
33184;SDS011;19550;42.872;25.494;2023-04-01T05:49:26;38.13;;;21.45;;
33184;SDS011;19550;42.872;25.494;2023-04-01T05:51:53;37.75;;;21.63;;
33184;SDS011;19550;42.872;25.494;2023-04-01T05:54:20;38.70;;;22.45;;
33184;SDS011;19550;42.872;25.494;2023-04-01T05:56:47;38.75;;;21.38;;
33184;SDS011;19550;42.872;25.494;2023-04-01T05:59:14;40.92;;;22.92;;
33184;SDS011;19550;42.872;25.494;2023-04-01T06:01:41;51.97;;;24.80;;
33184;SDS011;19550;42.872;25.494;2023-04-01T06:04:11;42.38;;;23.70;;
33184;SDS011;19550;42.872;25.494;2023-04-01T06:06:40;46.75;;;26.08;;
33184;SDS011;19550;42.872;25.494;2023-04-01T06:09:07;41.90;;;25.55;;
33184;SDS011;19550;42.872;25.494;2023-04-01T06:11:42;48.63;;;27.10;;
33184;SDS011;19550;42.872;25.494;2023-04-01T06:14:24;49.78;;;29.35;;
33184;SDS011;19550;42.872;25.494;2023-04-01T06:17:07;47.28;;;27.85;;
33184;SDS011;19550;42.872;25.494;2023-04-01T06:19:49;51.10;;;29.55;;
33184;SDS011;19550;42.872;25.494;2023-04-01T06:22:31;48.20;;;26.90;;
33184;SDS011;19550;42.872;25.494;2023-04-01T06:25:24;53.10;;;27.20;;
33184;SDS011;19550;42.872;25.494;2023-04-01T06:28:03;47.67;;;27.83;;
33184;SDS011;19550;42.872;25.494;2023-04-01T06:30:49;52.22;;;30.85;;
33184;SDS011;19550;42.872;25.494;2023-04-01T06:33:35;74.90;;;40.35;;
33184;SDS011;19550;42.872;25.494;2023-04-01T06:36:17;73.93;;;43.22;;
33184;SDS011;19550;42.872;25.494;2023-04-01T06:39:15;64.30;;;37.53;;
33184;SDS011;19550;42.872;25.494;2023-04-01T06:42:03;62.00;;;35.88;;
33184;SDS011;19550;42.872;25.494;2023-04-01T06:44:41;89.53;;;51.90;;
33184;SDS011;19550;42.872;25.494;2023-04-01T06:47:22;95.50;;;53.85;;
33184;SDS011;19550;42.872;25.494;2023-04-01T06:49:57;73.20;;;43.53;;
33184;SDS011;19550;42.872;25.494;2023-04-01T06:52:36;42.45;;;25.05;;
33184;SDS011;19550;42.872;25.494;2023-04-01T06:55:17;49.42;;;27.95;;
33184;SDS011;19550;42.872;25.494;2023-04-01T06:57:54;65.45;;;37.13;;
33184;SDS011;19550;42.872;25.494;2023-04-01T07:00:26;68.85;;;42.90;;
33184;SDS011;19550;42.872;25.494;2023-04-01T07:02:59;54.20;;;32.63;;
33184;SDS011;19550;42.872;25.494;2023-04-01T07:05:35;60.63;;;36.87;;
33184;SDS011;19550;42.872;25.494;2023-04-01T07:08:04;78.45;;;48.03;;
33184;SDS011;19550;42.872;25.494;2023-04-01T07:10:38;104.85;;;61.53;;
33184;SDS011;19550;42.872;25.494;2023-04-01T07:13:12;90.15;;;53.20;;
33184;SDS011;19550;42.872;25.494;2023-04-01T07:15:43;82.88;;;48.88;;
33184;SDS011;19550;42.872;25.494;2023-04-01T07:18:22;81.07;;;47.10;;
33184;SDS011;19550;42.872;25.494;2023-04-01T07:20:54;88.32;;;49.53;;
33184;SDS011;19550;42.872;25.494;2023-04-01T07:23:24;85.13;;;50.17;;
33184;SDS011;19550;42.872;25.494;2023-04-01T07:25:55;82.03;;;44.05;;
33184;SDS011;19550;42.872;25.494;2023-04-01T07:28:26;48.30;;;26.70;;
33184;SDS011;19550;42.872;25.494;2023-04-01T07:31:00;56.08;;;35.97;;
33184;SDS011;19550;42.872;25.494;2023-04-01T07:33:35;49.60;;;29.90;;
33184;SDS011;19550;42.872;25.494;2023-04-01T07:36:11;44.33;;;27.45;;
33184;SDS011;19550;42.872;25.494;2023-04-01T07:38:48;42.67;;;24.42;;
33184;SDS011;19550;42.872;25.494;2023-04-01T07:41:25;40.67;;;24.88;;
33184;SDS011;19550;42.872;25.494;2023-04-01T07:44:06;48.15;;;27.73;;
33184;SDS011;19550;42.872;25.494;2023-04-01T07:46:47;69.35;;;43.45;;
33184;SDS011;19550;42.872;25.494;2023-04-01T07:49:27;70.97;;;43.45;;
33184;SDS011;19550;42.872;25.494;2023-04-01T07:52:04;72.63;;;51.13;;
33184;SDS011;19550;42.872;25.494;2023-04-01T07:54:37;51.50;;;36.15;;
33184;SDS011;19550;42.872;25.494;2023-04-01T07:57:12;32.67;;;17.83;;
33184;SDS011;19550;42.872;25.494;2023-04-01T07:59:47;14.60;;;9.05;;
33184;SDS011;19550;42.872;25.494;2023-04-01T08:02:23;23.35;;;12.63;;
33184;SDS011;19550;42.872;25.494;2023-04-01T08:05:04;17.80;;;9.38;;
33184;SDS011;19550;42.872;25.494;2023-04-01T08:07:42;12.90;;;8.77;;
33184;SDS011;19550;42.872;25.494;2023-04-01T08:10:18;13.20;;;5.40;;
33184;SDS011;19550;42.872;25.494;2023-04-01T08:12:52;26.85;;;12.65;;
33184;SDS011;19550;42.872;25.494;2023-04-01T08:15:32;22.83;;;9.75;;
33184;SDS011;19550;42.872;25.494;2023-04-01T08:18:08;14.45;;;7.85;;
33184;SDS011;19550;42.872;25.494;2023-04-01T08:20:47;13.38;;;5.55;;
33184;SDS011;19550;42.872;25.494;2023-04-01T08:23:19;9.85;;;4.90;;
33184;SDS011;19550;42.872;25.494;2023-04-01T08:25:51;29.67;;;7.35;;
33184;SDS011;19550;42.872;25.494;2023-04-01T08:28:24;9.68;;;5.70;;
33184;SDS011;19550;42.872;25.494;2023-04-01T08:30:56;18.40;;;9.35;;
33184;SDS011;19550;42.872;25.494;2023-04-01T08:33:27;13.15;;;7.95;;
33184;SDS011;19550;42.872;25.494;2023-04-01T08:35:57;14.15;;;7.50;;
33184;SDS011;19550;42.872;25.494;2023-04-01T08:38:29;12.23;;;7.68;;
33184;SDS011;19550;42.872;25.494;2023-04-01T08:41:01;22.90;;;11.80;;
33184;SDS011;19550;42.872;25.494;2023-04-01T08:43:44;11.80;;;7.50;;
33184;SDS011;19550;42.872;25.494;2023-04-01T08:52:45;14.75;;;6.15;;
33184;SDS011;19550;42.872;25.494;2023-04-01T08:55:29;9.90;;;4.80;;
33184;SDS011;19550;42.872;25.494;2023-04-01T08:58:11;9.48;;;4.20;;
33184;SDS011;19550;42.872;25.494;2023-04-01T09:01:06;7.88;;;4.53;;
33184;SDS011;19550;42.872;25.494;2023-04-01T09:03:44;13.20;;;5.05;;
33184;SDS011;19550;42.872;25.494;2023-04-01T09:06:32;12.52;;;4.20;;
33184;SDS011;19550;42.872;25.494;2023-04-01T09:09:14;8.43;;;4.07;;
33184;SDS011;19550;42.872;25.494;2023-04-01T09:15:04;42.15;;;11.63;;
33184;SDS011;19550;42.872;25.494;2023-04-01T09:17:48;10.10;;;3.25;;
33184;SDS011;19550;42.872;25.494;2023-04-01T09:20:32;8.98;;;4.57;;
33184;SDS011;19550;42.872;25.494;2023-04-01T09:26:35;13.02;;;5.72;;
33184;SDS011;19550;42.872;25.494;2023-04-01T09:29:20;11.75;;;6.60;;
33184;SDS011;19550;42.872;25.494;2023-04-01T09:32:12;20.35;;;6.13;;
33184;SDS011;19550;42.872;25.494;2023-04-01T09:35:06;10.30;;;4.30;;
33184;SDS011;19550;42.872;25.494;2023-04-01T09:37:51;17.08;;;4.88;;
33184;SDS011;19550;42.872;25.494;2023-04-01T09:40:21;10.05;;;5.47;;
33184;SDS011;19550;42.872;25.494;2023-04-01T09:43:14;12.23;;;3.30;;
33184;SDS011;19550;42.872;25.494;2023-04-01T09:45:53;8.85;;;3.63;;
33184;SDS011;19550;42.872;25.494;2023-04-01T09:51:49;8.32;;;3.15;;
33184;SDS011;19550;42.872;25.494;2023-04-01T09:54:28;8.82;;;2.72;;
33184;SDS011;19550;42.872;25.494;2023-04-01T09:57:22;6.00;;;2.50;;
33184;SDS011;19550;42.872;25.494;2023-04-01T10:00:20;11.75;;;2.47;;
33184;SDS011;19550;42.872;25.494;2023-04-01T10:03:16;9.40;;;2.90;;
33184;SDS011;19550;42.872;25.494;2023-04-01T10:09:06;10.95;;;3.83;;
33184;SDS011;19550;42.872;25.494;2023-04-01T10:15:00;5.45;;;2.60;;
33184;SDS011;19550;42.872;25.494;2023-04-01T10:18:08;8.60;;;3.20;;
33184;SDS011;19550;42.872;25.494;2023-04-01T10:24:19;13.02;;;5.25;;
33184;SDS011;19550;42.872;25.494;2023-04-01T10:27:20;10.70;;;4.47;;
33184;SDS011;19550;42.872;25.494;2023-04-01T10:36:07;13.38;;;5.53;;
33184;SDS011;19550;42.872;25.494;2023-04-01T10:39:00;8.27;;;4.50;;
33184;SDS011;19550;42.872;25.494;2023-04-01T10:56:46;9.88;;;3.85;;
33184;SDS011;19550;42.872;25.494;2023-04-01T11:02:58;7.97;;;3.38;;
33184;SDS011;19550;42.872;25.494;2023-04-01T11:06:06;7.25;;;3.40;;
33184;SDS011;19550;42.872;25.494;2023-04-01T11:12:34;9.63;;;3.72;;
33184;SDS011;19550;42.872;25.494;2023-04-01T11:15:35;10.25;;;3.25;;
33184;SDS011;19550;42.872;25.494;2023-04-01T11:24:39;8.13;;;3.40;;
33184;SDS011;19550;42.872;25.494;2023-04-01T11:27:25;8.13;;;3.38;;
33184;SDS011;19550;42.872;25.494;2023-04-01T11:30:07;12.05;;;4.45;;
33184;SDS011;19550;42.872;25.494;2023-04-01T11:32:48;7.38;;;3.30;;
33184;SDS011;19550;42.872;25.494;2023-04-01T11:35:28;6.40;;;3.22;;
33184;SDS011;19550;42.872;25.494;2023-04-01T11:38:19;7.80;;;3.33;;
33184;SDS011;19550;42.872;25.494;2023-04-01T11:41:12;13.50;;;3.53;;
33184;SDS011;19550;42.872;25.494;2023-04-01T11:43:53;10.05;;;4.20;;
33184;SDS011;19550;42.872;25.494;2023-04-01T11:46:33;13.02;;;4.43;;
33184;SDS011;19550;42.872;25.494;2023-04-01T11:49:14;10.80;;;3.17;;
33184;SDS011;19550;42.872;25.494;2023-04-01T11:52:12;16.88;;;5.03;;
33184;SDS011;19550;42.872;25.494;2023-04-01T11:55:02;10.57;;;3.95;;
33184;SDS011;19550;42.872;25.494;2023-04-01T11:57:56;13.02;;;4.57;;
33184;SDS011;19550;42.872;25.494;2023-04-01T12:00:44;9.98;;;3.70;;
33184;SDS011;19550;42.872;25.494;2023-04-01T12:03:27;10.55;;;4.13;;
33184;SDS011;19550;42.872;25.494;2023-04-01T12:06:10;12.85;;;4.25;;
33184;SDS011;19550;42.872;25.494;2023-04-01T12:08:46;17.75;;;3.80;;
33184;SDS011;19550;42.872;25.494;2023-04-01T12:11:23;11.93;;;3.72;;
33184;SDS011;19550;42.872;25.494;2023-04-01T12:13:59;15.68;;;6.25;;
33184;SDS011;19550;42.872;25.494;2023-04-01T12:16:41;9.50;;;4.20;;
33184;SDS011;19550;42.872;25.494;2023-04-01T12:19:15;15.60;;;4.53;;
33184;SDS011;19550;42.872;25.494;2023-04-01T12:21:52;10.20;;;4.07;;
33184;SDS011;19550;42.872;25.494;2023-04-01T12:27:27;8.45;;;3.55;;
33184;SDS011;19550;42.872;25.494;2023-04-01T12:30:17;9.85;;;4.22;;
33184;SDS011;19550;42.872;25.494;2023-04-01T12:33:00;11.88;;;4.65;;
33184;SDS011;19550;42.872;25.494;2023-04-01T12:35:39;14.40;;;4.53;;
33184;SDS011;19550;42.872;25.494;2023-04-01T12:38:22;15.88;;;4.20;;
33184;SDS011;19550;42.872;25.494;2023-04-01T12:41:03;9.20;;;3.92;;
33184;SDS011;19550;42.872;25.494;2023-04-01T12:46:35;14.02;;;4.28;;
33184;SDS011;19550;42.872;25.494;2023-04-01T12:49:31;12.93;;;4.65;;
33184;SDS011;19550;42.872;25.494;2023-04-01T12:52:12;14.13;;;4.95;;
33184;SDS011;19550;42.872;25.494;2023-04-01T12:54:49;14.50;;;4.70;;
33184;SDS011;19550;42.872;25.494;2023-04-01T13:00:48;14.02;;;5.25;;
33184;SDS011;19550;42.872;25.494;2023-04-01T13:03:41;17.27;;;5.00;;
33184;SDS011;19550;42.872;25.494;2023-04-01T13:06:33;13.07;;;4.28;;
33184;SDS011;19550;42.872;25.494;2023-04-01T13:09:15;14.20;;;5.65;;
33184;SDS011;19550;42.872;25.494;2023-04-01T13:11:54;15.35;;;5.20;;
33184;SDS011;19550;42.872;25.494;2023-04-01T13:14:54;14.73;;;5.25;;
33184;SDS011;19550;42.872;25.494;2023-04-01T13:17:36;17.33;;;6.43;;
33184;SDS011;19550;42.872;25.494;2023-04-01T13:20:14;13.20;;;5.45;;
33184;SDS011;19550;42.872;25.494;2023-04-01T13:22:53;23.33;;;6.00;;
33184;SDS011;19550;42.872;25.494;2023-04-01T13:25:29;17.15;;;5.07;;
33184;SDS011;19550;42.872;25.494;2023-04-01T13:28:04;17.52;;;5.53;;
33184;SDS011;19550;42.872;25.494;2023-04-01T13:30:42;20.35;;;6.60;;
33184;SDS011;19550;42.872;25.494;2023-04-01T13:33:15;20.13;;;5.57;;
33184;SDS011;19550;42.872;25.494;2023-04-01T13:35:51;20.33;;;5.80;;
33184;SDS011;19550;42.872;25.494;2023-04-01T13:41:38;12.10;;;5.20;;
33184;SDS011;19550;42.872;25.494;2023-04-01T13:44:17;21.65;;;5.65;;
33184;SDS011;19550;42.872;25.494;2023-04-01T13:46:58;15.75;;;4.78;;
33184;SDS011;19550;42.872;25.494;2023-04-01T13:49:37;16.92;;;4.60;;
33184;SDS011;19550;42.872;25.494;2023-04-01T13:52:26;17.75;;;5.00;;
33184;SDS011;19550;42.872;25.494;2023-04-01T13:55:30;15.00;;;4.57;;
33184;SDS011;19550;42.872;25.494;2023-04-01T13:58:31;18.02;;;5.25;;
33184;SDS011;19550;42.872;25.494;2023-04-01T14:01:17;24.08;;;6.20;;
33184;SDS011;19550;42.872;25.494;2023-04-01T14:07:12;16.65;;;6.53;;
33184;SDS011;19550;42.872;25.494;2023-04-01T14:10:01;20.60;;;5.45;;
33184;SDS011;19550;42.872;25.494;2023-04-01T14:12:36;16.10;;;4.90;;
33184;SDS011;19550;42.872;25.494;2023-04-01T14:18:11;23.70;;;6.47;;
33184;SDS011;19550;42.872;25.494;2023-04-01T14:20:49;20.38;;;6.22;;
33184;SDS011;19550;42.872;25.494;2023-04-01T14:23:33;21.70;;;6.85;;
33184;SDS011;19550;42.872;25.494;2023-04-01T14:29:04;30.20;;;14.95;;
33184;SDS011;19550;42.872;25.494;2023-04-01T14:31:46;12.20;;;4.95;;
33184;SDS011;19550;42.872;25.494;2023-04-01T14:34:21;48.92;;;37.33;;
33184;SDS011;19550;42.872;25.494;2023-04-01T14:37:10;10.77;;;4.95;;
33184;SDS011;19550;42.872;25.494;2023-04-01T14:43:01;39.55;;;12.32;;
33184;SDS011;19550;42.872;25.494;2023-04-01T14:45:51;26.13;;;14.20;;
33184;SDS011;19550;42.872;25.494;2023-04-01T14:48:32;13.63;;;6.38;;
33184;SDS011;19550;42.872;25.494;2023-04-01T14:51:09;29.67;;;5.85;;
33184;SDS011;19550;42.872;25.494;2023-04-01T14:53:43;10.05;;;4.32;;
33184;SDS011;19550;42.872;25.494;2023-04-01T14:56:34;7.85;;;3.38;;
33184;SDS011;19550;42.872;25.494;2023-04-01T14:59:06;10.18;;;8.27;;
33184;SDS011;19550;42.872;25.494;2023-04-01T15:01:37;8.52;;;3.45;;
33184;SDS011;19550;42.872;25.494;2023-04-01T15:04:17;9.60;;;5.85;;
33184;SDS011;19550;42.872;25.494;2023-04-01T15:10:26;5.50;;;1.98;;
33184;SDS011;19550;42.872;25.494;2023-04-01T15:13:26;4.68;;;2.95;;
33184;SDS011;19550;42.872;25.494;2023-04-01T15:16:13;5.18;;;2.63;;
33184;SDS011;19550;42.872;25.494;2023-04-01T15:18:49;4.70;;;3.20;;
33184;SDS011;19550;42.872;25.494;2023-04-01T15:21:27;10.07;;;6.68;;
33184;SDS011;19550;42.872;25.494;2023-04-01T15:24:11;75.97;;;59.13;;
33184;SDS011;19550;42.872;25.494;2023-04-01T15:26:52;11.23;;;7.72;;
33184;SDS011;19550;42.872;25.494;2023-04-01T15:29:39;13.80;;;9.38;;
33184;SDS011;19550;42.872;25.494;2023-04-01T15:32:15;9.68;;;6.38;;
33184;SDS011;19550;42.872;25.494;2023-04-01T15:34:49;10.65;;;6.13;;
33184;SDS011;19550;42.872;25.494;2023-04-01T15:37:22;14.50;;;9.88;;
33184;SDS011;19550;42.872;25.494;2023-04-01T15:42:41;10.07;;;7.40;;
33184;SDS011;19550;42.872;25.494;2023-04-01T15:45:26;8.75;;;5.20;;
33184;SDS011;19550;42.872;25.494;2023-04-01T15:48:10;5.85;;;3.55;;
33184;SDS011;19550;42.872;25.494;2023-04-01T15:50:54;40.83;;;29.60;;
33184;SDS011;19550;42.872;25.494;2023-04-01T15:53:44;14.98;;;9.45;;
33184;SDS011;19550;42.872;25.494;2023-04-01T15:56:26;30.65;;;26.70;;
33184;SDS011;19550;42.872;25.494;2023-04-01T15:59:07;8.95;;;7.55;;
33184;SDS011;19550;42.872;25.494;2023-04-01T16:01:47;3.45;;;2.17;;
33184;SDS011;19550;42.872;25.494;2023-04-01T16:04:36;4.78;;;3.75;;
33184;SDS011;19550;42.872;25.494;2023-04-01T16:07:17;7.53;;;4.40;;
33184;SDS011;19550;42.872;25.494;2023-04-01T16:09:59;4.28;;;3.53;;
33184;SDS011;19550;42.872;25.494;2023-04-01T16:12:43;9.35;;;5.60;;
33184;SDS011;19550;42.872;25.494;2023-04-01T16:15:21;5.43;;;3.60;;
33184;SDS011;19550;42.872;25.494;2023-04-01T16:20:46;11.85;;;7.53;;
33184;SDS011;19550;42.872;25.494;2023-04-01T16:23:22;7.35;;;4.53;;
33184;SDS011;19550;42.872;25.494;2023-04-01T16:25:53;8.00;;;4.88;;
33184;SDS011;19550;42.872;25.494;2023-04-01T16:28:32;14.90;;;10.43;;
33184;SDS011;19550;42.872;25.494;2023-04-01T16:31:07;22.02;;;16.45;;
33184;SDS011;19550;42.872;25.494;2023-04-01T16:33:42;12.00;;;8.15;;
33184;SDS011;19550;42.872;25.494;2023-04-01T16:36:20;19.38;;;16.02;;
33184;SDS011;19550;42.872;25.494;2023-04-01T16:39:06;13.27;;;10.05;;
33184;SDS011;19550;42.872;25.494;2023-04-01T16:41:49;13.80;;;8.40;;
33184;SDS011;19550;42.872;25.494;2023-04-01T16:44:26;15.13;;;9.60;;
33184;SDS011;19550;42.872;25.494;2023-04-01T16:46:53;13.40;;;9.85;;
33184;SDS011;19550;42.872;25.494;2023-04-01T16:49:25;21.17;;;15.75;;